Time;durP1;ratioP1;P1;durP2;ratioP2;P2;SDS_P1;SDS_P2;PMS_P1;PMS_P2;Temp;Humidity;BMP_temperature;BMP_pressure;BME280_temperature;BME280_humidity;BME280_pressure;Samples;Min_cycle;Max_cycle;Signal;HPM_P1;HPM_P2
2021/06/17 00:00:05;;;;;;;5.50;3.55;;;;;;;;;;343520;28;1170;-72
2021/06/17 00:00:18;;;;;;;5.53;3.70;;;;;;;;;;343574;28;1118;-73
2021/06/17 00:00:31;;;;;;;6.25;3.75;;;;;;;;;;343746;28;1102;-73
2021/06/17 00:00:43;;;;;;;5.80;3.80;;;;;;;;;;343482;28;1046;-72
2021/06/17 00:00:55;;;;;;;5.65;4.00;;;;;;;;;;343425;28;1158;-72
2021/06/17 00:01:07;;;;;;;5.57;4.10;;;;;;;;;;343626;28;1046;-72
2021/06/17 00:01:19;;;;;;;5.72;4.07;;;;;;;;;;343580;28;2020;-73
2021/06/17 00:01:31;;;;;;;4.95;3.95;;;;;;;;;;343964;28;1173;-73
2021/06/17 00:01:43;;;;;;;5.68;3.80;;;;;;;;;;343846;28;1158;-73
2021/06/17 00:01:56;;;;;;;6.15;3.78;;;;;;;;;;343857;28;1173;-72
2021/06/17 00:02:08;;;;;;;6.55;3.78;;;;;;;;;;343876;28;1102;-72
2021/06/17 00:02:20;;;;;;;5.68;3.78;;;;;;;;;;343925;28;1181;-72
2021/06/17 00:02:33;;;;;;;4.70;3.80;;;;;;;;;;345095;28;1105;-72
2021/06/17 00:02:46;;;;;;;4.93;4.00;;;;;;;;;;345011;28;1200;-72
2021/06/17 00:02:58;;;;;;;6.47;3.97;;;;;;;;;;344882;28;1106;-72
2021/06/17 00:03:10;;;;;;;8.10;4.07;;;;;;;;;;345122;28;1094;-72
2021/06/17 00:03:23;;;;;;;8.07;4.10;;;;;;;;;;345028;28;1884;-72
2021/06/17 00:03:35;;;;;;;7.10;4.10;;;;;;;;;;344051;28;1681;-72
2021/06/17 00:03:47;;;;;;;5.88;4.00;;;;;;;;;;346230;28;1001;-73
2021/06/17 00:03:59;;;;;;;6.15;3.97;;;;;;;;;;346415;28;1106;-73
2021/06/17 00:04:11;;;;;;;5.40;3.97;;;;;;;;;;346359;28;991;-72
2021/06/17 00:04:23;;;;;;;5.45;4.05;;;;;;;;;;346370;28;1003;-72
2021/06/17 00:04:35;;;;;;;6.20;4.02;;;;;;;;;;345555;28;1043;-72
2021/06/17 00:04:47;;;;;;;7.00;4.05;;;;;;;;;;345204;28;1148;-72
2021/06/17 00:04:59;;;;;;;6.47;4.00;;;;;;;;;;345307;28;1157;-72
2021/06/17 00:05:13;;;;;;;6.13;3.90;;;;;;;;;;345174;28;1139;-73
2021/06/17 00:05:28;;;;;;;5.35;3.90;;;;;;;;;;344737;28;16690;-73
2021/06/17 00:05:42;;;;;;;5.70;4.05;;;;;;;;;;343804;28;40826;-73
2021/06/17 00:05:54;;;;;;;5.28;3.97;;;;;;;;;;344709;28;17108;-72
2021/06/17 00:06:06;;;;;;;5.03;3.90;;;;;;;;;;345241;28;1090;-73
2021/06/17 00:06:18;;;;;;;5.05;4.00;;;;;;;;;;345219;28;1172;-72
2021/06/17 00:06:30;;;;;;;5.90;4.10;;;;;;;;;;345206;28;1165;-73
2021/06/17 00:06:43;;;;;;;6.22;4.15;;;;;;;;;;345230;28;1205;-73
2021/06/17 00:06:55;;;;;;;5.97;4.07;;;;;;;;;;345258;28;982;-73
2021/06/17 00:07:07;;;;;;;6.93;4.10;;;;;;;;;;345208;28;1069;-72
2021/06/17 00:07:19;;;;;;;7.25;4.15;;;;;;;;;;344312;28;1626;-73
2021/06/17 00:07:31;;;;;;;4.82;4.00;;;;;;;;;;342453;28;1039;-72
2021/06/17 00:07:44;;;;;;;5.40;3.92;;;;;;;;;;342430;28;1282;-72
2021/06/17 00:07:57;;;;;;;5.45;3.80;;;;;;;;;;342498;28;2122;-73
2021/06/17 00:08:09;;;;;;;6.20;3.88;;;;;;;;;;343648;28;1082;-72
2021/06/17 00:08:21;;;;;;;7.47;3.97;;;;;;;;;;343347;28;1069;-72
2021/06/17 00:08:34;;;;;;;7.88;4.05;;;;;;;;;;345038;28;990;-72
2021/06/17 00:08:46;;;;;;;7.18;4.10;;;;;;;;;;345069;28;1035;-73
2021/06/17 00:08:58;;;;;;;7.28;4.00;;;;;;;;;;344879;28;1099;-72
2021/06/17 00:09:10;;;;;;;5.88;4.00;;;;;;;;;;345119;28;1166;-72
2021/06/17 00:09:22;;;;;;;5.35;3.90;;;;;;;;;;344698;28;1056;-72
2021/06/17 00:09:34;;;;;;;6.22;3.80;;;;;;;;;;344821;28;990;-72
2021/06/17 00:09:47;;;;;;;6.38;3.95;;;;;;;;;;344988;28;1046;-72
2021/06/17 00:09:59;;;;;;;6.40;3.90;;;;;;;;;;344906;28;1099;-72
2021/06/17 00:10:34;;;;;;;7.53;3.88;;;;;;;;;;344915;28;1130;-73
2021/06/17 00:10:47;;;;;;;7.13;3.80;;;;;;;;;;342212;28;1170;-73
2021/06/17 00:11:00;;;;;;;6.35;3.78;;;;;;;;;;342028;28;1123;-72
2021/06/17 00:11:12;;;;;;;8.20;3.90;;;;;;;;;;342326;28;1185;-73
2021/06/17 00:11:24;;;;;;;7.00;3.90;;;;;;;;;;342382;28;1063;-72
2021/06/17 00:11:37;;;;;;;7.45;3.88;;;;;;;;;;342327;28;1514;-72
2021/06/17 00:11:50;;;;;;;6.25;3.60;;;;;;;;;;342485;28;1495;-73
2021/06/17 00:12:02;;;;;;;6.07;3.50;;;;;;;;;;342405;28;1100;-72
2021/06/17 00:12:15;;;;;;;5.07;3.47;;;;;;;;;;340928;29;1738;-71
2021/06/17 00:12:27;;;;;;;4.18;3.45;;;;;;;;;;341077;29;1121;-72
2021/06/17 00:12:39;;;;;;;4.95;3.85;;;;;;;;;;341080;29;1451;-72
2021/06/17 00:12:52;;;;;;;5.70;4.00;;;;;;;;;;340968;29;990;-73
2021/06/17 00:13:12;;;;;;;6.65;3.72;;;;;;;;;;341037;29;1210;-72
2021/06/17 00:13:26;;;;;;;8.45;3.80;;;;;;;;;;341062;29;1550;-73
2021/06/17 00:13:39;;;;;;;7.65;3.95;;;;;;;;;;342374;28;1015;-72
2021/06/17 00:13:52;;;;;;;6.97;3.50;;;;;;;;;;342261;28;1138;-72
2021/06/17 00:14:04;;;;;;;6.63;3.50;;;;;;;;;;342487;28;1711;-72
2021/06/17 00:14:17;;;;;;;5.25;3.53;;;;;;;;;;343945;28;1689;-72
2021/06/17 00:14:30;;;;;;;5.32;3.40;;;;;;;;;;344793;28;1283;-72
2021/06/17 00:14:42;;;;;;;6.43;3.58;;;;;;;;;;344967;28;967;-72
2021/06/17 00:14:54;;;;;;;5.20;3.45;;;;;;;;;;344708;28;1189;-73
2021/06/17 00:15:08;;;;;;;4.97;3.63;;;;;;;;;;344834;28;1063;-72
2021/06/17 00:15:22;;;;;;;5.28;3.72;;;;;;;;;;343601;28;1081;-72
2021/06/17 00:15:36;;;;;;;6.45;3.60;;;;;;;;;;343673;28;1503;-70
2021/06/17 00:15:49;;;;;;;6.72;3.60;;;;;;;;;;342043;28;1842;-73
2021/06/17 00:16:03;;;;;;;6.90;3.65;;;;;;;;;;340942;28;1078;-72
2021/06/17 00:16:15;;;;;;;5.55;3.70;;;;;;;;;;342260;28;1106;-72
2021/06/17 00:16:27;;;;;;;5.82;3.65;;;;;;;;;;342176;28;1054;-72
2021/06/17 00:16:40;;;;;;;5.03;3.47;;;;;;;;;;342248;28;1003;-72
2021/06/17 00:16:52;;;;;;;4.15;3.45;;;;;;;;;;342066;28;1098;-72
2021/06/17 00:17:07;;;;;;;4.90;3.53;;;;;;;;;;342268;28;1059;-72
2021/06/17 00:17:19;;;;;;;5.45;3.58;;;;;;;;;;342727;28;1035;-73
2021/06/17 00:17:32;;;;;;;4.47;3.40;;;;;;;;;;343488;28;1150;-72
2021/06/17 00:17:45;;;;;;;4.70;3.33;;;;;;;;;;343570;28;1093;-72
2021/06/17 00:17:58;;;;;;;5.45;3.63;;;;;;;;;;343409;28;1188;-72
2021/06/17 00:18:11;;;;;;;5.63;3.60;;;;;;;;;;343711;28;1090;-72
2021/06/17 00:18:24;;;;;;;5.22;3.70;;;;;;;;;;343564;28;1078;-72
2021/06/17 00:18:36;;;;;;;4.38;3.53;;;;;;;;;;343454;28;1403;-72
2021/06/17 00:18:48;;;;;;;4.68;3.70;;;;;;;;;;343409;28;1099;-72
2021/06/17 00:19:02;;;;;;;5.10;3.63;;;;;;;;;;343709;28;1090;-72
2021/06/17 00:19:14;;;;;;;6.40;3.60;;;;;;;;;;343516;28;1166;-72
2021/06/17 00:19:26;;;;;;;6.20;3.40;;;;;;;;;;343497;28;1364;-72
2021/06/17 00:19:38;;;;;;;6.38;3.50;;;;;;;;;;343332;28;1180;-73
2021/06/17 00:19:53;;;;;;;5.80;3.70;;;;;;;;;;342917;28;16985;-72
2021/06/17 00:20:05;;;;;;;5.68;3.90;;;;;;;;;;343761;28;1114;-73
2021/06/17 00:20:18;;;;;;;4.95;3.60;;;;;;;;;;343578;28;990;-72
2021/06/17 00:20:31;;;;;;;5.50;3.70;;;;;;;;;;343493;28;1024;-72
2021/06/17 00:20:44;;;;;;;5.68;3.80;;;;;;;;;;343331;28;1289;-73
2021/06/17 00:20:56;;;;;;;6.15;3.67;;;;;;;;;;343521;28;1034;-72
2021/06/17 00:21:09;;;;;;;5.95;3.85;;;;;;;;;;343757;28;1100;-72
2021/06/17 00:21:21;;;;;;;6.00;3.80;;;;;;;;;;343452;28;1317;-72
2021/06/17 00:21:33;;;;;;;5.78;3.75;;;;;;;;;;343398;28;1091;-72
2021/06/17 00:21:45;;;;;;;5.85;3.60;;;;;;;;;;343594;28;1417;-72
2021/06/17 00:21:57;;;;;;;6.03;3.58;;;;;;;;;;343469;28;1194;-72
2021/06/17 00:22:09;;;;;;;5.20;3.47;;;;;;;;;;343464;28;1079;-73
2021/06/17 00:22:22;;;;;;;5.05;3.30;;;;;;;;;;343427;28;1215;-72
2021/06/17 00:22:34;;;;;;;5.47;3.33;;;;;;;;;;344708;28;1075;-72
2021/06/17 00:22:46;;;;;;;5.63;3.55;;;;;;;;;;344794;28;1914;-72
2021/06/17 00:22:59;;;;;;;5.75;3.78;;;;;;;;;;344909;28;1046;-72
2021/06/17 00:23:11;;;;;;;5.15;3.72;;;;;;;;;;344832;28;1154;-72
2021/06/17 00:23:23;;;;;;;4.80;3.55;;;;;;;;;;344809;28;1102;-72
2021/06/17 00:23:36;;;;;;;6.45;3.50;;;;;;;;;;344980;28;1036;-73
2021/06/17 00:23:48;;;;;;;6.00;3.55;;;;;;;;;;344892;28;1241;-73
2021/06/17 00:24:00;;;;;;;5.75;3.80;;;;;;;;;;344779;28;1064;-72
2021/06/17 00:24:12;;;;;;;4.22;3.70;;;;;;;;;;345061;28;981;-72
2021/06/17 00:24:25;;;;;;;4.10;3.55;;;;;;;;;;345066;28;955;-72
2021/06/17 00:24:37;;;;;;;4.38;3.58;;;;;;;;;;344171;28;1154;-72
2021/06/17 00:24:49;;;;;;;5.90;3.50;;;;;;;;;;343819;28;1647;-72
2021/06/17 00:25:03;;;;;;;5.88;3.50;;;;;;;;;;342202;28;1106;-72
2021/06/17 00:25:18;;;;;;;4.30;3.60;;;;;;;;;;342109;28;1133;-72
2021/06/17 00:25:30;;;;;;;5.00;3.65;;;;;;;;;;342279;28;1104;-72
2021/06/17 00:25:42;;;;;;;5.55;3.80;;;;;;;;;;342544;28;1102;-72
2021/06/17 00:25:56;;;;;;;5.22;3.83;;;;;;;;;;343523;28;1046;-73
2021/06/17 00:26:08;;;;;;;4.03;3.58;;;;;;;;;;343066;28;18193;-73
2021/06/17 00:26:20;;;;;;;4.20;3.35;;;;;;;;;;343608;28;1042;-72
2021/06/17 00:26:32;;;;;;;4.13;3.20;;;;;;;;;;343829;28;1165;-72
2021/06/17 00:26:47;;;;;;;5.00;3.40;;;;;;;;;;343412;28;16608;-72
2021/06/17 00:26:59;;;;;;;5.43;3.53;;;;;;;;;;343678;28;1103;-72
2021/06/17 00:27:11;;;;;;;5.00;3.47;;;;;;;;;;343721;28;1131;-72
2021/06/17 00:27:23;;;;;;;4.00;3.47;;;;;;;;;;343469;28;1154;-72
2021/06/17 00:27:35;;;;;;;4.45;3.55;;;;;;;;;;343590;28;1107;-72
2021/06/17 00:27:48;;;;;;;4.93;3.53;;;;;;;;;;343692;28;1143;-72
2021/06/17 00:28:00;;;;;;;5.90;3.60;;;;;;;;;;343501;28;1127;-72
2021/06/17 00:28:12;;;;;;;5.53;3.80;;;;;;;;;;343576;28;999;-72
2021/06/17 00:28:25;;;;;;;6.72;3.85;;;;;;;;;;343419;28;1042;-73
2021/06/17 00:28:37;;;;;;;7.38;3.70;;;;;;;;;;343527;28;1094;-72
2021/06/17 00:28:49;;;;;;;7.55;3.75;;;;;;;;;;343415;28;1146;-72
2021/06/17 00:29:01;;;;;;;4.47;3.45;;;;;;;;;;343316;28;1070;-73
2021/06/17 00:29:13;;;;;;;6.35;3.53;;;;;;;;;;343613;28;984;-72
2021/06/17 00:29:25;;;;;;;6.00;3.58;;;;;;;;;;343844;28;1225;-72
2021/06/17 00:29:37;;;;;;;7.00;3.80;;;;;;;;;;343600;28;1066;-72
2021/06/17 00:29:49;;;;;;;5.75;3.78;;;;;;;;;;343632;28;1051;-72
2021/06/17 00:30:03;;;;;;;5.47;3.65;;;;;;;;;;343585;28;1076;-72
2021/06/17 00:30:16;;;;;;;4.32;3.30;;;;;;;;;;343583;28;972;-72
2021/06/17 00:30:28;;;;;;;3.95;3.30;;;;;;;;;;343476;28;971;-72
2021/06/17 00:30:41;;;;;;;4.30;3.55;;;;;;;;;;343539;28;1337;-72
2021/06/17 00:30:53;;;;;;;5.22;3.78;;;;;;;;;;341073;29;1051;-72
2021/06/17 00:31:06;;;;;;;6.65;4.05;;;;;;;;;;341105;29;1066;-73
2021/06/17 00:31:18;;;;;;;5.45;3.90;;;;;;;;;;341041;29;1090;-73
2021/06/17 00:31:30;;;;;;;5.35;3.63;;;;;;;;;;340981;29;1142;-73
2021/06/17 00:31:42;;;;;;;5.68;3.60;;;;;;;;;;340808;29;1008;-72
2021/06/17 00:31:55;;;;;;;7.57;3.83;;;;;;;;;;341994;28;1167;-72
2021/06/17 00:32:07;;;;;;;7.43;4.15;;;;;;;;;;342331;28;1050;-72
2021/06/17 00:32:19;;;;;;;5.85;3.97;;;;;;;;;;342490;28;1103;-72
2021/06/17 00:32:32;;;;;;;7.30;3.80;;;;;;;;;;341025;29;1082;-72
2021/06/17 00:32:44;;;;;;;7.03;3.45;;;;;;;;;;340894;29;1035;-73
2021/06/17 00:32:56;;;;;;;5.00;3.38;;;;;;;;;;340932;29;1025;-72
2021/06/17 00:33:09;;;;;;;4.60;3.42;;;;;;;;;;340964;29;1090;-72
2021/06/17 00:33:21;;;;;;;4.53;3.58;;;;;;;;;;341180;29;1087;-72
2021/06/17 00:33:34;;;;;;;4.50;3.60;;;;;;;;;;340920;29;1239;-73
2021/06/17 00:33:46;;;;;;;4.95;3.60;;;;;;;;;;341004;29;956;-72
2021/06/17 00:33:58;;;;;;;5.15;3.63;;;;;;;;;;340982;29;1062;-72
2021/06/17 00:34:10;;;;;;;5.22;3.80;;;;;;;;;;341108;29;1222;-73
2021/06/17 00:34:22;;;;;;;5.28;3.80;;;;;;;;;;341034;29;1095;-72
2021/06/17 00:34:34;;;;;;;6.10;3.90;;;;;;;;;;341416;28;1112;-72
2021/06/17 00:34:46;;;;;;;5.82;3.80;;;;;;;;;;342213;28;945;-72
2021/06/17 00:34:59;;;;;;;5.00;3.63;;;;;;;;;;342252;28;1190;-73
2021/06/17 00:35:11;;;;;;;5.13;3.60;;;;;;;;;;342282;28;1114;-72
2021/06/17 00:35:25;;;;;;;5.75;3.60;;;;;;;;;;343071;28;1750;-72
2021/06/17 00:35:37;;;;;;;6.20;3.60;;;;;;;;;;343712;28;1741;-72
2021/06/17 00:35:49;;;;;;;6.70;3.65;;;;;;;;;;342348;28;1126;-72
2021/06/17 00:36:02;;;;;;;5.10;3.47;;;;;;;;;;342374;28;1245;-72
2021/06/17 00:36:14;;;;;;;4.50;3.50;;;;;;;;;;342261;28;1099;-72
2021/06/17 00:36:26;;;;;;;6.00;3.65;;;;;;;;;;342386;28;1082;-72
2021/06/17 00:36:39;;;;;;;7.10;3.60;;;;;;;;;;342357;28;1122;-73
2021/06/17 00:36:51;;;;;;;8.02;3.70;;;;;;;;;;342384;28;1131;-73
2021/06/17 00:37:03;;;;;;;6.43;3.63;;;;;;;;;;342344;28;1106;-72
2021/06/17 00:37:16;;;;;;;5.68;3.70;;;;;;;;;;341995;28;1112;-72
2021/06/17 00:37:28;;;;;;;5.90;3.80;;;;;;;;;;342163;28;1498;-72
2021/06/17 00:37:40;;;;;;;5.18;3.58;;;;;;;;;;342169;28;1162;-72
2021/06/17 00:37:52;;;;;;;4.47;3.13;;;;;;;;;;342090;28;1095;-72
2021/06/17 00:38:04;;;;;;;4.25;2.90;;;;;;;;;;342154;28;1048;-72
2021/06/17 00:38:17;;;;;;;3.58;3.10;;;;;;;;;;341938;28;1122;-72
2021/06/17 00:38:29;;;;;;;4.43;3.40;;;;;;;;;;342032;28;1361;-73
2021/06/17 00:38:41;;;;;;;4.90;3.63;;;;;;;;;;342158;28;1142;-73
2021/06/17 00:38:53;;;;;;;5.43;3.78;;;;;;;;;;342178;28;1073;-73
2021/06/17 00:39:07;;;;;;;5.22;3.67;;;;;;;;;;342111;28;1166;-73
2021/06/17 00:39:19;;;;;;;5.07;3.70;;;;;;;;;;341938;28;1111;-72
2021/06/17 00:39:31;;;;;;;5.45;3.75;;;;;;;;;;342337;28;1290;-73
2021/06/17 00:39:43;;;;;;;7.00;3.78;;;;;;;;;;342233;28;1118;-71
2021/06/17 00:39:55;;;;;;;7.10;3.70;;;;;;;;;;342246;28;1090;-73
2021/06/17 00:40:09;;;;;;;6.40;3.65;;;;;;;;;;342343;28;1068;-72
2021/06/17 00:40:23;;;;;;;5.97;3.80;;;;;;;;;;342409;28;1109;-72
2021/06/17 00:40:35;;;;;;;6.88;3.67;;;;;;;;;;342261;28;1357;-73
2021/06/17 00:40:51;;;;;;;7.25;3.42;;;;;;;;;;342444;28;1176;-72
2021/06/17 00:41:03;;;;;;;5.30;3.50;;;;;;;;;;342123;28;1110;-73
2021/06/17 00:41:15;;;;;;;5.07;3.50;;;;;;;;;;342632;28;1216;-73
2021/06/17 00:41:27;;;;;;;5.90;3.30;;;;;;;;;;342490;28;1104;-72
2021/06/17 00:41:40;;;;;;;6.10;3.30;;;;;;;;;;342546;28;1054;-72
2021/06/17 00:41:52;;;;;;;4.28;3.22;;;;;;;;;;342411;28;1110;-72
2021/06/17 00:42:04;;;;;;;5.13;3.45;;;;;;;;;;342221;28;1055;-72
2021/06/17 00:42:16;;;;;;;6.70;4.07;;;;;;;;;;342260;28;1134;-73
2021/06/17 00:42:28;;;;;;;5.35;4.13;;;;;;;;;;342235;28;1130;-72
2021/06/17 00:42:41;;;;;;;5.35;3.90;;;;;;;;;;342129;28;1127;-72
2021/06/17 00:42:54;;;;;;;5.35;3.80;;;;;;;;;;342133;28;1147;-73
2021/06/17 00:43:06;;;;;;;6.22;3.80;;;;;;;;;;342088;28;1115;-73
2021/06/17 00:43:19;;;;;;;6.28;3.90;;;;;;;;;;342175;28;1092;-72
2021/06/17 00:43:31;;;;;;;6.20;3.88;;;;;;;;;;342174;28;1083;-73
2021/06/17 00:43:43;;;;;;;5.75;3.80;;;;;;;;;;342106;28;1174;-72
2021/06/17 00:43:55;;;;;;;6.95;3.60;;;;;;;;;;342384;28;992;-72
2021/06/17 00:44:07;;;;;;;6.55;3.55;;;;;;;;;;342137;28;1124;-73
2021/06/17 00:44:20;;;;;;;7.10;3.90;;;;;;;;;;342253;28;1093;-72
2021/06/17 00:44:32;;;;;;;7.15;3.95;;;;;;;;;;342097;28;1056;-72
2021/06/17 00:44:44;;;;;;;6.35;3.60;;;;;;;;;;342074;28;1055;-72
2021/06/17 00:44:56;;;;;;;5.35;3.38;;;;;;;;;;342208;28;1408;-72
2021/06/17 00:45:10;;;;;;;5.20;3.17;;;;;;;;;;342111;28;1079;-72
2021/06/17 00:45:24;;;;;;;4.63;3.30;;;;;;;;;;342103;28;1061;-73
2021/06/17 00:45:43;;;;;;;6.03;3.50;;;;;;;;;;341599;28;17072;-72
2021/06/17 00:45:56;;;;;;;5.70;3.33;;;;;;;;;;342386;28;1100;-73
2021/06/17 00:46:08;;;;;;;4.07;3.10;;;;;;;;;;343738;28;1857;-72
2021/06/17 00:46:21;;;;;;;5.38;3.03;;;;;;;;;;343428;28;1648;-72
2021/06/17 00:46:33;;;;;;;6.10;3.20;;;;;;;;;;343751;28;1051;-72
2021/06/17 00:46:46;;;;;;;5.60;3.30;;;;;;;;;;343640;28;1022;-72
2021/06/17 00:46:58;;;;;;;5.13;3.42;;;;;;;;;;343508;28;1151;-72
2021/06/17 00:47:10;;;;;;;4.97;3.55;;;;;;;;;;343797;28;1459;-72
2021/06/17 00:47:22;;;;;;;4.70;3.47;;;;;;;;;;343638;28;1198;-72
2021/06/17 00:47:34;;;;;;;5.10;3.28;;;;;;;;;;343562;28;1169;-72
2021/06/17 00:47:47;;;;;;;5.35;3.35;;;;;;;;;;343769;28;1057;-72
2021/06/17 00:47:59;;;;;;;4.07;3.40;;;;;;;;;;343528;28;1097;-72
2021/06/17 00:48:12;;;;;;;3.58;3.28;;;;;;;;;;343893;28;1934;-72
2021/06/17 00:48:24;;;;;;;5.43;3.47;;;;;;;;;;343669;28;1098;-72
2021/06/17 00:48:36;;;;;;;6.53;3.35;;;;;;;;;;343510;28;1117;-72
2021/06/17 00:48:48;;;;;;;7.05;3.50;;;;;;;;;;342419;28;1092;-72
2021/06/17 00:49:00;;;;;;;7.38;3.40;;;;;;;;;;343539;28;1106;-72
2021/06/17 00:49:13;;;;;;;6.90;3.22;;;;;;;;;;343542;28;1066;-71
2021/06/17 00:49:25;;;;;;;5.00;3.30;;;;;;;;;;343516;28;1134;-72
2021/06/17 00:49:37;;;;;;;4.50;3.47;;;;;;;;;;343461;28;1069;-72
2021/06/17 00:49:50;;;;;;;4.43;3.47;;;;;;;;;;344746;28;1190;-72
2021/06/17 00:50:03;;;;;;;4.90;3.20;;;;;;;;;;344824;28;1152;-72
2021/06/17 00:50:15;;;;;;;5.05;3.17;;;;;;;;;;344911;28;1087;-72
2021/06/17 00:50:31;;;;;;;5.55;3.30;;;;;;;;;;344769;28;1084;-73
2021/06/17 00:50:47;;;;;;;5.22;3.40;;;;;;;;;;344874;28;1323;-72
2021/06/17 00:51:01;;;;;;;4.07;3.38;;;;;;;;;;345350;28;1621;-72
2021/06/17 00:51:13;;;;;;;3.75;3.20;;;;;;;;;;346150;28;1122;-72
2021/06/17 00:51:25;;;;;;;4.95;3.25;;;;;;;;;;346367;28;1058;-72
2021/06/17 00:51:37;;;;;;;5.35;3.50;;;;;;;;;;346389;28;1098;-73
2021/06/17 00:51:49;;;;;;;4.18;3.40;;;;;;;;;;345592;28;1051;-72
2021/06/17 00:52:05;;;;;;;3.55;3.17;;;;;;;;;;343829;28;1034;-72
2021/06/17 00:52:17;;;;;;;4.85;3.08;;;;;;;;;;343676;28;1107;-72
2021/06/17 00:52:29;;;;;;;6.22;3.25;;;;;;;;;;343838;28;963;-73
2021/06/17 00:52:43;;;;;;;6.72;3.30;;;;;;;;;;343768;28;1170;-73
2021/06/17 00:52:56;;;;;;;5.53;3.30;;;;;;;;;;343813;28;1002;-73
2021/06/17 00:53:09;;;;;;;5.82;3.50;;;;;;;;;;343965;28;1058;-72
2021/06/17 00:53:26;;;;;;;5.65;3.50;;;;;;;;;;343783;28;1074;-72
2021/06/17 00:53:38;;;;;;;5.68;3.20;;;;;;;;;;341469;28;64064;-72
2021/06/17 00:53:51;;;;;;;5.32;3.30;;;;;;;;;;345045;28;1079;-72
2021/06/17 00:54:03;;;;;;;4.68;3.35;;;;;;;;;;344959;28;947;-72
2021/06/17 00:54:31;;;;;;;5.40;3.35;;;;;;;;;;344886;28;1118;-72
2021/06/17 00:54:43;;;;;;;5.43;3.38;;;;;;;;;;345065;28;2079;-72
2021/06/17 00:54:56;;;;;;;5.32;3.47;;;;;;;;;;346265;28;1063;-72
2021/06/17 00:55:08;;;;;;;5.35;3.42;;;;;;;;;;346106;28;1093;-72
2021/06/17 00:55:21;;;;;;;6.10;3.35;;;;;;;;;;346343;28;1338;-72
2021/06/17 00:55:33;;;;;;;6.13;3.30;;;;;;;;;;346347;28;1177;-72
2021/06/17 00:55:45;;;;;;;4.32;3.10;;;;;;;;;;346297;28;1157;-72
2021/06/17 00:55:58;;;;;;;5.35;3.17;;;;;;;;;;346332;28;975;-72
2021/06/17 00:56:10;;;;;;;7.13;3.35;;;;;;;;;;346395;28;1165;-73
2021/06/17 00:56:23;;;;;;;7.57;3.38;;;;;;;;;;346479;28;1033;-72
2021/06/17 00:56:35;;;;;;;7.30;3.40;;;;;;;;;;346169;28;1106;-72
2021/06/17 00:56:47;;;;;;;7.07;3.42;;;;;;;;;;345966;28;1626;-72
2021/06/17 00:57:04;;;;;;;5.28;3.47;;;;;;;;;;344159;28;1773;-72
2021/06/17 00:57:17;;;;;;;4.90;3.55;;;;;;;;;;343869;28;1118;-72
2021/06/17 00:57:29;;;;;;;4.85;3.55;;;;;;;;;;343857;28;1043;-72
2021/06/17 00:57:41;;;;;;;5.95;3.40;;;;;;;;;;343787;28;1325;-72
2021/06/17 00:57:53;;;;;;;5.80;3.20;;;;;;;;;;343570;28;1245;-72
2021/06/17 00:58:06;;;;;;;5.45;3.33;;;;;;;;;;343796;28;1099;-72
2021/06/17 00:58:19;;;;;;;4.47;3.40;;;;;;;;;;343784;28;1127;-72
2021/06/17 00:58:31;;;;;;;4.20;3.50;;;;;;;;;;343767;28;1162;-72
2021/06/17 00:58:44;;;;;;;4.25;3.47;;;;;;;;;;342986;28;1451;-72
2021/06/17 00:58:57;;;;;;;4.40;3.42;;;;;;;;;;343617;28;963;-72
2021/06/17 00:59:09;;;;;;;5.07;3.40;;;;;;;;;;343481;28;1138;-72
2021/06/17 00:59:23;;;;;;;5.28;3.45;;;;;;;;;;342350;28;1174;-72
2021/06/17 00:59:36;;;;;;;5.85;3.60;;;;;;;;;;342286;28;1099;-72
2021/06/17 00:59:48;;;;;;;4.97;3.33;;;;;;;;;;341909;28;1072;-72
2021/06/17 01:00:00;;;;;;;4.25;3.17;;;;;;;;;;342262;28;1063;-72
2021/06/17 01:00:13;;;;;;;3.67;3.30;;;;;;;;;;342270;28;993;-72
2021/06/17 01:00:27;;;;;;;4.10;3.33;;;;;;;;;;340840;28;40159;-72
2021/06/17 01:00:40;;;;;;;4.90;3.45;;;;;;;;;;342214;28;1158;-72
2021/06/17 01:00:52;;;;;;;5.05;3.65;;;;;;;;;;343720;28;1161;-72
2021/06/17 01:01:04;;;;;;;5.10;3.47;;;;;;;;;;343927;28;1263;-72
2021/06/17 01:01:16;;;;;;;5.05;3.28;;;;;;;;;;343807;28;1091;-72
2021/06/17 01:01:28;;;;;;;5.28;3.22;;;;;;;;;;345391;28;1129;-72
2021/06/17 01:01:40;;;;;;;6.47;3.28;;;;;;;;;;345119;28;1182;-72
2021/06/17 01:01:53;;;;;;;5.13;3.28;;;;;;;;;;345324;28;1042;-72
2021/06/17 01:02:06;;;;;;;5.07;3.38;;;;;;;;;;345315;28;1136;-72
2021/06/17 01:02:18;;;;;;;5.30;3.50;;;;;;;;;;343935;28;1778;-72
2021/06/17 01:02:30;;;;;;;4.95;3.35;;;;;;;;;;344121;28;1079;-72
2021/06/17 01:02:42;;;;;;;4.93;3.53;;;;;;;;;;345413;28;1080;-72
2021/06/17 01:02:54;;;;;;;4.60;3.50;;;;;;;;;;345247;28;1138;-72
2021/06/17 01:03:07;;;;;;;4.18;3.25;;;;;;;;;;344348;28;1096;-72
2021/06/17 01:03:20;;;;;;;5.45;3.30;;;;;;;;;;344106;28;1056;-73
2021/06/17 01:03:32;;;;;;;6.07;3.33;;;;;;;;;;343908;28;1107;-72
2021/06/17 01:03:44;;;;;;;5.38;3.70;;;;;;;;;;344111;28;1056;-72
2021/06/17 01:03:56;;;;;;;5.07;3.70;;;;;;;;;;344087;28;1027;-72
2021/06/17 01:04:08;;;;;;;4.90;3.60;;;;;;;;;;344062;28;1146;-72
2021/06/17 01:04:21;;;;;;;5.57;3.47;;;;;;;;;;344090;28;1174;-72
2021/06/17 01:04:33;;;;;;;5.40;3.45;;;;;;;;;;343995;28;1166;-72
2021/06/17 01:04:45;;;;;;;5.25;3.38;;;;;;;;;;344149;28;1083;-72
2021/06/17 01:04:58;;;;;;;5.75;3.55;;;;;;;;;;343995;28;1039;-72
2021/06/17 01:05:15;;;;;;;6.40;3.70;;;;;;;;;;343452;28;15617;-72
2021/06/17 01:05:28;;;;;;;5.45;3.50;;;;;;;;;;342745;28;40115;-72
2021/06/17 01:05:40;;;;;;;5.40;3.53;;;;;;;;;;344333;28;1098;-72
2021/06/17 01:05:53;;;;;;;6.35;3.63;;;;;;;;;;344050;28;1098;-72
2021/06/17 01:06:05;;;;;;;7.95;3.60;;;;;;;;;;343942;28;1198;-72
2021/06/17 01:06:17;;;;;;;7.22;3.60;;;;;;;;;;343957;28;1177;-72
2021/06/17 01:06:29;;;;;;;4.70;3.53;;;;;;;;;;342667;28;1109;-72
2021/06/17 01:06:41;;;;;;;6.22;3.60;;;;;;;;;;342926;28;1146;-72
2021/06/17 01:06:54;;;;;;;6.40;3.70;;;;;;;;;;342804;28;1083;-73
2021/06/17 01:07:06;;;;;;;4.88;3.85;;;;;;;;;;342998;28;1061;-72
2021/06/17 01:07:44;;;;;;;4.18;3.78;;;;;;;;;;342930;28;1784;-72
2021/06/17 01:08:02;;;;;;;6.60;3.78;;;;;;;;;;344155;28;62192;-72
2021/06/17 01:08:30;;;;;;;6.15;3.88;;;;;;;;;;344343;28;62476;-72
2021/06/17 01:08:45;;;;;;;7.53;4.45;;;;;;;;;;344205;28;64399;-72
2021/06/17 01:08:57;;;;;;;7.20;4.25;;;;;;;;;;345093;28;40078;-72
2021/06/17 01:09:14;;;;;;;6.00;4.07;;;;;;;;;;346447;28;1102;-73
2021/06/17 01:09:44;;;;;;;5.97;4.00;;;;;;;;;;344268;28;64069;-72
2021/06/17 01:10:19;;;;;;;5.20;3.92;;;;;;;;;;343501;28;87666;-72
2021/06/17 01:10:37;;;;;;;5.00;3.65;;;;;;;;;;344260;28;64608;-72
2021/06/17 01:11:01;;;;;;;4.22;3.80;;;;;;;;;;344376;28;64719;-73
2021/06/17 01:11:22;;;;;;;4.38;3.72;;;;;;;;;;345144;28;41414;-73
2021/06/17 01:11:43;;;;;;;5.22;3.70;;;;;;;;;;345192;28;41748;-72
2021/06/17 01:11:55;;;;;;;4.95;3.70;;;;;;;;;;344872;28;40170;-73
2021/06/17 01:12:14;;;;;;;6.82;3.90;;;;;;;;;;346649;28;1106;-72
2021/06/17 01:12:47;;;;;;;6.63;3.80;;;;;;;;;;344393;28;62951;-72
2021/06/17 01:13:12;;;;;;;5.05;3.60;;;;;;;;;;346338;28;1092;-73
2021/06/17 01:13:55;;;;;;;5.05;3.95;;;;;;;;;;344958;28;40714;-72
2021/06/17 01:14:07;;;;;;;7.30;3.88;;;;;;;;;;344441;28;63236;-72
2021/06/17 01:14:24;;;;;;;6.13;3.78;;;;;;;;;;346438;28;1041;-72
2021/06/17 01:14:48;;;;;;;4.72;3.78;;;;;;;;;;344346;28;63544;-72
2021/06/17 01:15:03;;;;;;;6.50;3.80;;;;;;;;;;344362;28;63164;-72
2021/06/17 01:15:18;;;;;;;5.55;3.70;;;;;;;;;;346836;28;932;-72
2021/06/17 01:15:31;;;;;;;4.60;3.75;;;;;;;;;;345018;28;40875;-72
2021/06/17 01:16:02;;;;;;;5.30;3.80;;;;;;;;;;346450;28;1419;-72
2021/06/17 01:16:14;;;;;;;6.05;3.97;;;;;;;;;;341548;28;64451;-72
2021/06/17 01:16:43;;;;;;;5.43;3.90;;;;;;;;;;343659;28;1083;-72
2021/06/17 01:17:00;;;;;;;5.53;3.78;;;;;;;;;;342473;28;41099;-73
2021/06/17 01:17:14;;;;;;;6.05;3.90;;;;;;;;;;342513;28;39492;-72
2021/06/17 01:17:26;;;;;;;6.95;3.97;;;;;;;;;;343503;28;1110;-72
2021/06/17 01:17:43;;;;;;;6.68;4.25;;;;;;;;;;342737;28;1023;-72
2021/06/17 01:18:00;;;;;;;5.45;4.03;;;;;;;;;;340287;28;63637;-72
2021/06/17 01:18:14;;;;;;;5.30;3.67;;;;;;;;;;343607;28;40001;-72
2021/06/17 01:18:27;;;;;;;7.32;3.97;;;;;;;;;;345081;28;1165;-71
2021/06/17 01:18:42;;;;;;;7.32;4.20;;;;;;;;;;345061;28;1096;-72
2021/06/17 01:18:56;;;;;;;6.25;4.05;;;;;;;;;;345338;28;1446;-72
2021/06/17 01:19:15;;;;;;;5.28;3.92;;;;;;;;;;344629;28;16623;-72
2021/06/17 01:19:29;;;;;;;4.78;4.10;;;;;;;;;;344829;28;1042;-72
2021/06/17 01:20:01;;;;;;;5.32;4.15;;;;;;;;;;346075;28;1161;-72
2021/06/17 01:20:25;;;;;;;7.90;4.30;;;;;;;;;;346268;28;1181;-72
2021/06/17 01:20:44;;;;;;;6.97;3.90;;;;;;;;;;345798;28;17150;-72
2021/06/17 01:20:57;;;;;;;6.28;3.67;;;;;;;;;;345225;28;40888;-72
2021/06/17 01:21:14;;;;;;;7.05;3.70;;;;;;;;;;346511;28;1255;-72
2021/06/17 01:21:30;;;;;;;6.20;3.63;;;;;;;;;;344370;28;63636;-71
2021/06/17 01:21:42;;;;;;;7.82;3.97;;;;;;;;;;344318;28;64139;-72
2021/06/17 01:21:57;;;;;;;7.63;3.90;;;;;;;;;;346527;28;1133;-72
2021/06/17 01:22:15;;;;;;;5.82;3.60;;;;;;;;;;345040;28;1189;-73
2021/06/17 01:22:31;;;;;;;5.00;3.60;;;;;;;;;;345177;28;1161;-72
2021/06/17 01:22:58;;;;;;;6.57;3.80;;;;;;;;;;342868;28;62777;-72
2021/06/17 01:23:30;;;;;;;4.35;3.67;;;;;;;;;;344941;28;1122;-72
2021/06/17 01:24:05;;;;;;;5.82;3.38;;;;;;;;;;342897;28;64533;-72
2021/06/17 01:24:32;;;;;;;4.93;3.22;;;;;;;;;;344327;28;63229;-72
2021/06/17 01:24:44;;;;;;;5.43;3.50;;;;;;;;;;344271;28;66067;-72
2021/06/17 01:25:14;;;;;;;5.18;3.60;;;;;;;;;;344905;28;1085;-73
2021/06/17 01:25:39;;;;;;;6.93;3.50;;;;;;;;;;342872;28;64995;-72